Time;durP1;ratioP1;P1;durP2;ratioP2;P2;SDS_P1;SDS_P2;PMS_P1;PMS_P2;Temp;Humidity;BMP_temperature;BMP_pressure;BME280_temperature;BME280_humidity;BME280_pressure;Samples;Min_cycle;Max_cycle;Signal;HPM_P1;HPM_P2
2022/05/15 00:02:02;;;;;;;0.52;0.28;;;10.30;99.90;;;;;;5073356;28;20035;-88
2022/05/15 00:04:28;;;;;;;0.65;0.30;;;10.20;99.90;;;;;;5072752;28;20035;-87
2022/05/15 00:06:54;;;;;;;0.63;0.30;;;10.20;99.90;;;;;;5072066;28;20024;-87
2022/05/15 00:09:20;;;;;;;0.45;0.25;;;10.10;99.90;;;;;;5073732;28;20524;-88
2022/05/15 00:11:45;;;;;;;1.17;0.40;;;10.10;99.90;;;;;;5072488;28;20070;-88
2022/05/15 00:14:11;;;;;;;0.52;0.20;;;10.10;99.90;;;;;;5074258;28;20036;-87
2022/05/15 00:16:37;;;;;;;0.82;0.30;;;10.10;99.90;;;;;;5055689;28;20086;-87
2022/05/15 00:19:09;;;;;;;0.47;0.30;;;10.00;99.90;;;;;;5055686;28;20028;-88
2022/05/15 00:21:36;;;;;;;0.38;0.25;;;10.00;99.90;;;;;;5073968;28;20036;-88
2022/05/15 00:24:14;;;;;;;1.00;0.30;;;10.00;99.90;;;;;;5072598;28;20444;-87
2022/05/15 00:26:44;;;;;;;0.55;0.30;;;9.90;99.90;;;;;;5072518;28;20433;-87
2022/05/15 00:29:17;;;;;;;0.38;0.20;;;9.90;99.90;;;;;;5055677;28;20058;-88
2022/05/15 00:31:46;;;;;;;1.45;0.40;;;9.90;99.90;;;;;;5071862;28;20024;-87
2022/05/15 00:34:14;;;;;;;0.47;0.20;;;9.80;99.90;;;;;;5074386;28;20030;-85
2022/05/15 00:36:40;;;;;;;0.50;0.20;;;9.80;99.90;;;;;;5055145;28;20025;-88
2022/05/15 00:39:06;;;;;;;0.47;0.30;;;9.80;99.90;;;;;;5071623;28;20081;-86
2022/05/15 00:41:40;;;;;;;1.20;0.40;;;9.70;99.90;;;;;;5071807;28;20024;-87
2022/05/15 00:44:07;;;;;;;0.52;0.30;;;9.70;99.90;;;;;;5073239;28;20029;-87
2022/05/15 00:46:36;;;;;;;0.68;0.30;;;9.60;99.90;;;;;;5071586;28;20033;-86
2022/05/15 00:49:09;;;;;;;0.47;0.30;;;9.60;99.90;;;;;;5071937;28;20036;-87
2022/05/15 00:51:44;;;;;;;1.00;0.30;;;9.60;99.90;;;;;;5072722;28;20112;-87
2022/05/15 00:54:41;;;;;;;0.38;0.22;;;9.60;99.90;;;;;;5073522;28;20025;-86
2022/05/15 00:57:07;;;;;;;0.80;0.30;;;9.50;99.90;;;;;;5063605;28;20028;-87
2022/05/15 00:59:56;;;;;;;0.60;0.30;;;9.50;99.90;;;;;;5072021;28;20366;-85
2022/05/15 01:02:23;;;;;;;0.57;0.30;;;9.50;99.90;;;;;;5072196;28;20044;-86
2022/05/15 01:04:50;;;;;;;0.63;0.30;;;9.50;99.90;;;;;;5071547;28;20033;-86
2022/05/15 01:07:19;;;;;;;0.70;0.30;;;9.40;99.90;;;;;;5072960;28;20021;-86
2022/05/15 01:09:46;;;;;;;1.02;0.30;;;9.40;99.90;;;;;;5072225;28;20438;-86
2022/05/15 01:12:14;;;;;;;0.70;0.30;;;9.50;99.90;;;;;;5073131;28;20103;-87
2022/05/15 01:14:42;;;;;;;0.85;0.30;;;9.40;99.90;;;;;;5071812;28;20025;-86
2022/05/15 01:17:09;;;;;;;0.40;0.30;;;9.50;99.90;;;;;;5071739;28;20322;-87
2022/05/15 01:19:39;;;;;;;0.57;0.30;;;9.40;99.90;;;;;;5072548;28;20067;-86
2022/05/15 01:22:15;;;;;;;0.22;0.20;;;9.50;99.90;;;;;;5071338;28;20024;-87
2022/05/15 01:24:49;;;;;;;0.45;0.30;;;9.40;99.90;;;;;;5072223;28;20028;-87
2022/05/15 01:27:18;;;;;;;0.75;0.30;;;9.40;99.90;;;;;;5073725;28;20027;-88
2022/05/15 01:29:48;;;;;;;0.68;0.30;;;9.40;99.90;;;;;;5072726;28;20036;-88
2022/05/15 01:32:14;;;;;;;0.75;0.30;;;9.30;99.90;;;;;;5073011;28;20021;-86
2022/05/15 01:34:41;;;;;;;0.77;0.30;;;9.30;99.90;;;;;;5071211;28;20050;-88
2022/05/15 01:37:08;;;;;;;0.93;0.40;;;9.20;99.90;;;;;;5075693;28;20021;-88
2022/05/15 01:39:34;;;;;;;0.75;0.30;;;9.30;99.90;;;;;;5075062;28;20037;-87
2022/05/15 01:42:02;;;;;;;0.47;0.30;;;9.30;99.90;;;;;;5074984;28;20027;-87
2022/05/15 01:44:35;;;;;;;1.85;0.63;;;9.20;99.90;;;;;;5058682;28;20526;-87
2022/05/15 01:47:01;;;;;;;1.67;0.40;;;9.10;99.90;;;;;;5075997;28;20025;-87
2022/05/15 01:49:27;;;;;;;1.15;0.40;;;9.10;99.90;;;;;;5074743;28;20028;-87
2022/05/15 01:51:52;;;;;;;0.25;0.20;;;9.10;99.90;;;;;;5058346;28;20059;-86
2022/05/15 01:54:21;;;;;;;0.40;0.35;;;9.00;99.90;;;;;;5058147;28;20029;-87
2022/05/15 01:56:48;;;;;;;0.57;0.30;;;9.00;99.90;;;;;;5075479;28;20025;-87
2022/05/15 01:59:13;;;;;;;0.73;0.30;;;9.00;99.90;;;;;;5074444;28;20107;-87
2022/05/15 02:01:40;;;;;;;1.08;0.40;;;9.00;99.90;;;;;;5075830;28;20443;-87
2022/05/15 02:04:09;;;;;;;0.98;0.40;;;8.90;99.90;;;;;;5075697;28;20482;-87
2022/05/15 02:06:36;;;;;;;0.63;0.30;;;8.90;99.90;;;;;;5074634;28;20452;-87
2022/05/15 02:09:03;;;;;;;0.30;0.28;;;8.90;99.90;;;;;;5074452;28;20031;-86
2022/05/15 02:11:29;;;;;;;0.25;0.20;;;8.90;99.90;;;;;;5074791;28;20115;-87
2022/05/15 02:13:55;;;;;;;0.75;0.30;;;8.80;99.90;;;;;;5076492;28;20060;-86
2022/05/15 02:16:21;;;;;;;0.77;0.30;;;8.80;99.90;;;;;;5075529;28;20107;-87
2022/05/15 02:18:46;;;;;;;0.45;0.25;;;8.80;99.90;;;;;;5074537;28;20120;-82
2022/05/15 02:21:12;;;;;;;1.00;0.30;;;8.90;99.90;;;;;;5074109;28;20033;-87
2022/05/15 02:23:38;;;;;;;0.68;0.60;;;8.80;99.90;;;;;;5074495;28;20029;-83
2022/05/15 02:26:03;;;;;;;0.47;0.22;;;8.80;99.90;;;;;;5074253;28;20032;-82
2022/05/15 02:28:29;;;;;;;0.95;0.30;;;8.80;99.90;;;;;;5074180;28;20029;-84
2022/05/15 02:30:55;;;;;;;1.23;0.38;;;8.80;99.90;;;;;;5042004;28;20024;-82
2022/05/15 02:33:21;;;;;;;0.80;0.30;;;8.80;99.90;;;;;;5074709;28;20036;-85
2022/05/15 02:35:46;;;;;;;1.05;0.40;;;8.80;99.90;;;;;;5074380;28;20052;-85
2022/05/15 02:38:12;;;;;;;0.20;0.20;;;8.70;99.90;;;;;;5057261;28;20052;-83
2022/05/15 02:40:38;;;;;;;0.95;0.40;;;8.70;99.90;;;;;;5074155;28;20068;-83
2022/05/15 02:43:03;;;;;;;0.88;0.30;;;8.80;99.90;;;;;;5074102;28;20026;-83
2022/05/15 02:45:29;;;;;;;1.13;0.35;;;8.70;99.90;;;;;;5074390;28;20028;-82
2022/05/15 02:47:55;;;;;;;1.05;0.30;;;8.70;99.90;;;;;;5073367;28;20032;-81
2022/05/15 02:53:06;;;;;;;1.23;0.32;;;8.70;99.90;;;;;;5075935;28;20036;-84
2022/05/15 02:55:32;;;;;;;0.93;0.30;;;8.70;99.90;;;;;;5057548;28;20348;-83
2022/05/15 02:57:58;;;;;;;0.57;0.30;;;8.70;99.90;;;;;;5056332;28;20115;-82
2022/05/15 03:00:27;;;;;;;0.50;0.30;;;8.60;99.90;;;;;;5040969;28;20412;-82
2022/05/15 03:02:53;;;;;;;0.73;0.30;;;8.60;99.90;;;;;;5076603;28;20028;-89
2022/05/15 03:05:20;;;;;;;0.65;0.30;;;8.60;99.90;;;;;;5073591;28;20028;-84
2022/05/15 03:07:46;;;;;;;0.28;0.20;;;8.60;99.90;;;;;;5073515;28;20024;-83
2022/05/15 03:10:16;;;;;;;0.68;0.30;;;8.50;99.90;;;;;;5074487;28;20031;-86
2022/05/15 03:12:41;;;;;;;0.93;0.32;;;8.50;99.90;;;;;;5073889;28;20433;-85
2022/05/15 03:15:11;;;;;;;0.65;0.30;;;8.50;99.90;;;;;;5040700;28;20078;-81
2022/05/15 03:17:37;;;;;;;0.80;0.30;;;8.50;99.90;;;;;;5074750;28;20031;-84
2022/05/15 03:20:05;;;;;;;0.77;0.30;;;8.40;99.90;;;;;;5073413;28;20044;-82
2022/05/15 03:22:31;;;;;;;0.52;0.30;;;8.40;99.90;;;;;;5074702;28;20039;-82
2022/05/15 03:24:56;;;;;;;0.47;0.30;;;8.40;99.90;;;;;;5073419;28;20028;-89
2022/05/15 03:27:22;;;;;;;0.85;0.30;;;8.40;99.90;;;;;;5057006;28;20115;-84
2022/05/15 03:29:48;;;;;;;0.65;0.30;;;8.40;99.90;;;;;;5073998;28;20098;-83
2022/05/15 03:32:13;;;;;;;0.75;0.30;;;8.40;99.90;;;;;;5074943;28;20162;-80
2022/05/15 03:34:39;;;;;;;0.70;0.30;;;8.40;99.90;;;;;;5077431;28;20162;-82
2022/05/15 03:37:04;;;;;;;1.40;0.60;;;8.40;99.90;;;;;;5041781;28;20147;-83
2022/05/15 03:39:30;;;;;;;0.57;0.30;;;8.40;99.90;;;;;;5042520;28;20032;-82
2022/05/15 03:41:56;;;;;;;7.88;0.70;;;8.40;99.90;;;;;;5075344;28;20029;-82
2022/05/15 03:44:22;;;;;;;1.27;0.30;;;8.40;99.90;;;;;;5074648;28;20055;-91
2022/05/15 03:46:48;;;;;;;0.70;0.30;;;8.40;99.90;;;;;;5073835;28;20036;-82
2022/05/15 03:49:14;;;;;;;0.35;0.30;;;8.30;99.90;;;;;;5073316;28;20044;-83
2022/05/15 03:51:40;;;;;;;0.47;0.30;;;8.30;99.90;;;;;;5072932;28;20052;-81
2022/05/15 03:54:07;;;;;;;0.57;0.28;;;8.30;99.90;;;;;;5072822;28;20040;-83
2022/05/15 03:56:50;;;;;;;0.57;0.30;;;8.30;99.90;;;;;;5072997;28;20348;-82
2022/05/15 03:59:28;;;;;;;1.00;0.35;;;8.30;99.90;;;;;;5073936;28;20060;-82
2022/05/15 04:01:54;;;;;;;1.13;0.40;;;8.40;99.90;;;;;;5072887;28;20020;-85
2022/05/15 04:04:20;;;;;;;0.88;0.30;;;8.40;99.90;;;;;;5055695;28;20051;-82
2022/05/15 04:06:46;;;;;;;0.25;0.22;;;8.50;99.90;;;;;;5074127;28;20029;-90
2022/05/15 04:09:12;;;;;;;0.70;0.30;;;8.50;99.90;;;;;;5072599;28;20119;-84
2022/05/15 04:11:38;;;;;;;0.80;0.30;;;8.50;99.90;;;;;;5073061;28;20066;-81
2022/05/15 04:14:04;;;;;;;0.60;0.30;;;8.60;99.90;;;;;;5073493;28;20425;-88
2022/05/15 04:16:30;;;;;;;1.02;0.32;;;8.50;99.90;;;;;;5055654;28;20456;-82
2022/05/15 04:18:57;;;;;;;0.20;0.20;;;8.60;99.90;;;;;;5072780;28;20036;-83
2022/05/15 04:21:22;;;;;;;0.68;0.30;;;8.70;99.90;;;;;;5072344;28;20398;-87
2022/05/15 04:23:48;;;;;;;1.35;0.40;;;8.70;99.90;;;;;;5074789;28;20025;-84
2022/05/15 04:26:14;;;;;;;0.85;0.30;;;8.80;99.90;;;;;;5073198;28;20400;-83
2022/05/15 04:28:41;;;;;;;0.80;0.30;;;8.70;99.90;;;;;;5073725;28;20131;-81
2022/05/15 04:31:07;;;;;;;0.88;0.30;;;8.80;99.90;;;;;;5072664;28;20017;-86
2022/05/15 04:33:34;;;;;;;0.45;0.30;;;8.90;99.90;;;;;;5055125;28;20086;-85
2022/05/15 04:36:00;;;;;;;0.85;0.30;;;8.90;99.90;;;;;;5071899;28;20048;-81
2022/05/15 04:38:26;;;;;;;0.80;0.38;;;8.90;99.90;;;;;;5073456;28;20049;-85
2022/05/15 04:40:52;;;;;;;3.22;0.70;;;9.00;99.90;;;;;;5054990;28;20025;-92
2022/05/15 04:43:18;;;;;;;0.38;0.28;;;9.00;99.90;;;;;;5039443;28;20484;-82
2022/05/15 04:45:44;;;;;;;1.25;0.40;;;9.10;99.90;;;;;;5056039;28;20039;-81
2022/05/15 04:48:11;;;;;;;0.70;0.30;;;9.10;99.90;;;;;;5072046;28;20024;-81
2022/05/15 04:50:38;;;;;;;1.00;0.30;;;9.10;99.90;;;;;;5073482;28;20036;-82
2022/05/15 04:53:05;;;;;;;0.73;0.30;;;9.20;99.90;;;;;;5072276;28;20021;-83
2022/05/15 04:55:30;;;;;;;0.93;0.47;;;9.20;99.90;;;;;;5072462;28;20029;-81
2022/05/15 04:57:56;;;;;;;0.47;0.28;;;9.30;99.90;;;;;;5071724;28;20027;-82
2022/05/15 05:00:22;;;;;;;1.00;0.38;;;9.30;99.90;;;;;;5072590;28;20127;-89
2022/05/15 05:02:48;;;;;;;1.08;0.40;;;9.40;99.90;;;;;;5055832;28;20025;-89
2022/05/15 05:05:18;;;;;;;0.75;0.30;;;9.40;99.90;;;;;;5071845;28;20487;-85
2022/05/15 05:07:43;;;;;;;0.47;0.30;;;9.50;99.90;;;;;;5073423;28;20123;-83
2022/05/15 05:10:12;;;;;;;0.88;0.30;;;9.60;99.90;;;;;;5072629;28;20069;-82
2022/05/15 05:12:37;;;;;;;0.38;0.25;;;9.60;99.90;;;;;;5076673;28;20042;-85
2022/05/15 05:15:05;;;;;;;0.70;0.30;;;9.70;99.90;;;;;;5043228;28;20073;-82
2022/05/15 05:17:31;;;;;;;0.70;0.30;;;9.80;99.90;;;;;;5077694;28;20044;-82
2022/05/15 05:19:56;;;;;;;0.75;0.30;;;9.90;99.90;;;;;;5075558;28;20496;-82
2022/05/15 05:22:22;;;;;;;1.13;0.40;;;9.90;99.90;;;;;;5059053;28;20024;-83
2022/05/15 05:24:48;;;;;;;1.00;0.40;;;10.00;99.90;;;;;;5059904;28;20056;-92
2022/05/15 05:27:13;;;;;;;0.28;0.20;;;10.10;99.90;;;;;;5075916;28;20358;-82
2022/05/15 05:29:39;;;;;;;0.50;0.25;;;10.20;99.90;;;;;;5074801;28;20029;-82
2022/05/15 05:32:05;;;;;;;0.63;0.30;;;10.30;99.90;;;;;;5076351;28;20032;-83
2022/05/15 05:34:31;;;;;;;0.68;0.30;;;10.40;99.90;;;;;;5076126;28;20032;-83
2022/05/15 05:36:56;;;;;;;0.30;0.20;;;10.60;99.90;;;;;;5074772;28;20383;-85
2022/05/15 05:39:22;;;;;;;0.63;0.30;;;10.70;99.90;;;;;;5058979;28;20052;-82
2022/05/15 05:41:48;;;;;;;0.30;0.30;;;10.80;99.90;;;;;;5075082;28;20512;-82
2022/05/15 05:44:13;;;;;;;2.20;0.68;;;11.00;99.90;;;;;;5059268;28;20081;-82
2022/05/15 05:46:39;;;;;;;0.63;0.45;;;11.20;99.90;;;;;;5074659;28;20036;-82
2022/05/15 05:49:05;;;;;;;0.38;0.20;;;11.40;99.90;;;;;;5042238;28;20033;-82
2022/05/15 05:51:30;;;;;;;0.65;0.30;;;11.60;99.90;;;;;;5075392;28;20032;-86
2022/05/15 05:53:56;;;;;;;0.20;0.20;;;12.00;99.90;;;;;;5075605;28;20063;-82
2022/05/15 05:56:22;;;;;;;0.20;0.20;;;12.20;99.90;;;;;;5075671;28;20020;-82
2022/05/15 05:58:48;;;;;;;1.20;0.77;;;12.50;99.90;;;;;;5075004;28;20392;-82
2022/05/15 06:01:13;;;;;;;0.57;0.30;;;12.80;99.90;;;;;;5059278;28;20098;-83
2022/05/15 06:06:24;;;;;;;0.25;0.20;;;13.60;99.90;;;;;;5061849;28;20517;-83
2022/05/15 06:08:49;;;;;;;0.57;0.20;;;13.80;99.90;;;;;;5060210;28;20112;-81
2022/05/15 06:11:15;;;;;;;0.30;0.20;;;14.20;99.90;;;;;;5043409;28;20452;-88
2022/05/15 06:13:41;;;;;;;0.20;0.20;;;14.50;99.90;;;;;;5075450;28;20020;-82
2022/05/15 06:16:07;;;;;;;0.85;0.85;;;14.80;99.90;;;;;;5059421;28;20031;-81
2022/05/15 06:18:34;;;;;;;0.52;0.20;;;14.90;99.90;;;;;;5057192;28;20058;-82
2022/05/15 06:21:00;;;;;;;0.57;0.25;;;15.30;99.90;;;;;;5074331;28;20016;-87
2022/05/15 06:23:25;;;;;;;0.45;0.20;;;15.40;99.90;;;;;;5056034;28;20023;-83
2022/05/15 06:25:51;;;;;;;0.35;0.20;;;15.70;99.90;;;;;;5074837;28;20035;-85
2022/05/15 06:28:17;;;;;;;0.80;0.32;;;16.10;99.90;;;;;;5074517;28;20444;-83
2022/05/15 06:30:43;;;;;;;0.50;0.20;;;16.30;99.90;;;;;;5073830;28;20036;-93
2022/05/15 06:33:09;;;;;;;0.43;0.20;;;16.40;99.90;;;;;;5075118;28;20025;-89
2022/05/15 06:35:34;;;;;;;0.25;0.17;;;16.60;99.90;;;;;;5057825;28;20029;-82
2022/05/15 06:38:01;;;;;;;0.50;0.20;;;16.90;99.90;;;;;;5073810;28;20510;-83
2022/05/15 06:40:27;;;;;;;0.17;0.10;;;17.30;99.90;;;;;;5057109;28;20071;-90
2022/05/15 06:42:53;;;;;;;0.17;0.10;;;17.40;99.90;;;;;;5057970;28;20067;-83
2022/05/15 06:45:18;;;;;;;0.10;0.10;;;17.90;99.90;;;;;;5056786;28;20021;-83
2022/05/15 06:47:44;;;;;;;0.28;0.10;;;18.00;99.90;;;;;;5073712;28;20469;-82
2022/05/15 06:50:11;;;;;;;0.28;0.13;;;18.20;99.90;;;;;;5073298;28;20021;-83
2022/05/15 06:52:38;;;;;;;0.10;0.10;;;18.30;99.90;;;;;;5074701;28;20037;-83
2022/05/15 06:55:13;;;;;;;0.90;0.20;;;18.20;99.90;;;;;;5073478;28;20569;-89
2022/05/15 06:57:40;;;;;;;0.32;0.10;;;18.80;99.90;;;;;;5073346;28;20046;-81
2022/05/15 07:00:13;;;;;;;2.17;0.20;;;19.20;99.90;;;;;;5073113;28;20044;-83
2022/05/15 07:02:41;;;;;;;0.55;0.20;;;19.50;99.90;;;;;;5073291;28;20017;-84
2022/05/15 07:05:11;;;;;;;0.45;0.10;;;19.60;99.90;;;;;;5074176;28;20019;-85
2022/05/15 07:07:38;;;;;;;1.45;0.63;;;19.60;99.90;;;;;;5056390;28;20411;-81
2022/05/15 07:10:04;;;;;;;0.28;0.10;;;19.50;99.90;;;;;;5073433;28;20036;-84
2022/05/15 07:12:30;;;;;;;0.40;0.15;;;20.10;99.90;;;;;;5073400;28;20033;-84
2022/05/15 07:14:56;;;;;;;0.10;0.10;;;20.30;98.50;;;;;;5073878;28;20028;-87
2022/05/15 07:17:22;;;;;;;0.10;0.10;;;20.10;94.60;;;;;;5072730;28;20498;-83
2022/05/15 07:19:47;;;;;;;0.10;0.10;;;20.00;98.60;;;;;;5055731;28;20033;-82
2022/05/15 07:22:14;;;;;;;0.28;0.10;;;20.20;99.90;;;;;;5072297;28;20035;-91
2022/05/15 07:24:40;;;;;;;0.40;0.17;;;20.30;99.90;;;;;;5072980;28;20035;-82
2022/05/15 07:27:07;;;;;;;0.10;0.10;;;20.80;99.90;;;;;;5072896;28;20032;-85
2022/05/15 07:29:36;;;;;;;0.75;0.50;;;20.90;96.90;;;;;;5073297;28;20063;-82
2022/05/15 07:32:05;;;;;;;1.50;0.70;;;20.60;90.80;;;;;;5073762;28;20048;-83
2022/05/15 07:34:32;;;;;;;0.17;0.10;;;20.70;98.70;;;;;;5071912;28;20463;-85
2022/05/15 07:36:57;;;;;;;0.30;0.20;;;20.70;97.10;;;;;;5074202;28;20016;-82
2022/05/15 07:39:23;;;;;;;0.10;0.10;;;20.70;91.70;;;;;;5055762;28;20505;-86
2022/05/15 07:41:49;;;;;;;0.28;0.10;;;21.00;97.10;;;;;;5073928;28;20086;-83
2022/05/15 07:44:16;;;;;;;0.13;0.13;;;21.30;99.90;;;;;;5072477;28;20056;-83
2022/05/15 07:46:42;;;;;;;0.10;0.10;;;21.10;92.90;;;;;;5075414;28;20091;-77
2022/05/15 07:49:13;;;;;;;0.15;0.10;;;21.60;92.40;;;;;;5055753;28;20063;-78
2022/05/15 07:51:44;;;;;;;0.20;0.10;;;21.50;71.10;;;;;;5056098;28;20056;-78
2022/05/15 07:54:19;;;;;;;0.40;0.10;;;20.60;77.90;;;;;;5073695;28;20059;-85
2022/05/15 07:56:45;;;;;;;0.10;0.10;;;20.80;94.40;;;;;;5072270;28;20024;-85
2022/05/15 07:59:11;;;;;;;0.10;0.10;;;21.40;83.00;;;;;;5074065;28;20082;-84
2022/05/15 08:01:38;;;;;;;0.10;0.10;;;22.00;83.30;;;;;;5041079;28;20040;-85
2022/05/15 08:04:04;;;;;;;0.38;0.20;;;22.70;70.30;;;;;;5074684;28;20066;-85
2022/05/15 08:09:14;;;;;;;0.17;0.10;;;23.30;74.30;;;;;;5079596;28;20573;-86
2022/05/15 08:11:40;;;;;;;0.10;0.10;;;23.60;62.90;;;;;;5084095;28;20100;-85
2022/05/15 08:14:08;;;;;;;0.10;0.10;;;24.00;66.50;;;;;;5078036;28;20024;-85
2022/05/15 08:16:35;;;;;;;0.00;0.00;;;24.30;62.00;;;;;;5076756;28;20381;-84
2022/05/15 08:24:30;;;;;;;0.22;0.22;;;25.30;54.00;;;;;;5074577;28;20071;-84
2022/05/15 08:26:56;;;;;;;0.45;0.10;;;25.80;54.60;;;;;;5072422;28;20445;-85
2022/05/15 08:29:22;;;;;;;0.10;0.10;;;25.10;51.90;;;;;;5038779;28;20105;-83
2022/05/15 08:31:48;;;;;;;0.08;0.08;;;24.80;55.20;;;;;;5057786;28;20032;-84
2022/05/15 08:34:14;;;;;;;1.02;0.50;;;25.20;51.10;;;;;;5072329;28;20039;-84
2022/05/15 08:36:42;;;;;;;0.20;0.20;;;25.30;51.70;;;;;;5074031;28;20025;-85
2022/05/15 08:39:09;;;;;;;0.32;0.20;;;24.30;51.30;;;;;;5058274;28;20053;-83
2022/05/15 08:41:49;;;;;;;0.10;0.10;;;24.40;53.30;;;;;;5074595;28;20029;-85
2022/05/15 08:44:21;;;;;;;0.10;0.10;;;24.90;54.90;;;;;;5072759;28;20040;-84
2022/05/15 08:47:16;;;;;;;0.17;0.10;;;25.90;57.90;;;;;;5075508;28;20078;-84
2022/05/15 08:49:53;;;;;;;0.13;0.08;;;25.30;49.20;;;;;;5072274;28;20123;-85
2022/05/15 08:52:41;;;;;;;0.00;0.00;;;25.90;50.90;;;;;;5075159;28;20025;-86
2022/05/15 08:55:44;;;;;;;0.10;0.10;;;25.80;52.70;;;;;;5075267;28;20059;-85
2022/05/15 08:58:15;;;;;;;0.10;0.10;;;25.40;53.00;;;;;;5014210;28;20113;-83
2022/05/15 09:00:47;;;;;;;0.08;0.08;;;26.50;51.30;;;;;;5062684;28;20362;-85
2022/05/15 09:03:31;;;;;;;0.25;0.25;;;25.90;50.60;;;;;;5074723;28;20032;-86
2022/05/15 09:06:06;;;;;;;0.00;0.00;;;25.70;49.60;;;;;;5075228;28;20086;-83
2022/05/15 09:09:07;;;;;;;0.10;0.10;;;24.40;49.70;;;;;;5076034;28;20056;-84
2022/05/15 09:11:48;;;;;;;0.00;0.00;;;25.20;52.00;;;;;;5075952;28;20020;-87
2022/05/15 09:14:23;;;;;;;0.25;0.13;;;25.50;50.30;;;;;;5078892;28;20025;-85
2022/05/15 09:16:58;;;;;;;0.10;0.10;;;24.40;51.10;;;;;;5076017;28;20020;-83
2022/05/15 09:19:25;;;;;;;0.10;0.10;;;25.70;52.40;;;;;;5076484;28;20037;-83
2022/05/15 09:21:59;;;;;;;0.00;0.00;;;25.40;49.30;;;;;;5059392;28;20055;-83
2022/05/15 09:24:47;;;;;;;0.55;0.30;;;25.10;50.50;;;;;;5076484;28;20387;-83
2022/05/15 09:27:19;;;;;;;0.30;0.20;;;25.80;48.60;;;;;;5077757;28;20443;-84
2022/05/15 09:29:57;;;;;;;0.10;0.10;;;25.70;51.30;;;;;;5077998;28;20048;-84
2022/05/15 09:32:42;;;;;;;0.70;0.65;;;26.20;48.60;;;;;;5075004;28;20021;-85
2022/05/15 09:35:25;;;;;;;0.10;0.10;;;25.70;48.10;;;;;;5082291;28;20031;-82
2022/05/15 09:43:35;;;;;;;5.07;0.40;;;26.10;50.40;;;;;;5076691;28;20059;-83
2022/05/15 09:46:20;;;;;;;0.00;0.00;;;25.90;50.30;;;;;;5074784;28;20466;-84
2022/05/15 09:48:57;;;;;;;0.22;0.10;;;26.80;48.60;;;;;;5074370;28;20029;-83
2022/05/15 09:51:35;;;;;;;0.22;0.20;;;26.50;46.60;;;;;;5076663;28;20059;-83
2022/05/15 09:54:01;;;;;;;0.10;0.10;;;26.30;46.40;;;;;;5074520;28;20032;-83
2022/05/15 09:56:31;;;;;;;0.00;0.00;;;25.90;46.60;;;;;;5073965;28;20398;-84
2022/05/15 09:59:08;;;;;;;1.07;0.57;;;26.30;48.60;;;;;;5074152;28;20029;-84
2022/05/15 10:01:40;;;;;;;0.08;0.05;;;26.70;45.50;;;;;;5076115;28;20058;-84
2022/05/15 10:04:24;;;;;;;0.08;0.03;;;26.80;48.20;;;;;;5075270;28;20024;-82
2022/05/15 10:07:02;;;;;;;0.00;0.00;;;26.90;48.20;;;;;;5074481;28;20422;-83
2022/05/15 10:09:32;;;;;;;1.13;0.10;;;27.40;47.30;;;;;;5074066;28;20070;-84
2022/05/15 10:12:06;;;;;;;0.08;0.08;;;26.90;46.90;;;;;;5074465;28;20017;-83
2022/05/15 10:14:52;;;;;;;0.45;0.45;;;27.60;44.40;;;;;;5075385;28;20171;-83
2022/05/15 10:17:19;;;;;;;0.00;0.00;;;28.40;46.90;;;;;;5075738;28;20021;-82
2022/05/15 10:20:04;;;;;;;0.00;0.00;;;28.20;45.10;;;;;;5076301;28;20032;-82
2022/05/15 10:22:55;;;;;;;0.00;0.00;;;28.10;42.60;;;;;;5075736;28;20123;-85
2022/05/15 10:25:24;;;;;;;0.00;0.00;;;29.30;43.00;;;;;;5073910;28;20107;-82
2022/05/15 10:28:04;;;;;;;0.00;0.00;;;29.00;41.10;;;;;;5073852;28;20021;-81
2022/05/15 10:30:35;;;;;;;0.00;0.00;;;28.50;42.20;;;;;;5075095;28;20056;-82
2022/05/15 10:33:13;;;;;;;;;;;28.90;42.00;;;;;;5075823;28;20111;-83
2022/05/15 10:35:46;;;;;;;0.00;0.00;;;29.50;43.50;;;;;;5075957;28;19908;-83
2022/05/15 10:38:26;;;;;;;0.00;0.00;;;29.50;39.40;;;;;;5073221;28;20499;-82
2022/05/15 10:40:54;;;;;;;0.03;0.03;;;29.30;40.10;;;;;;5074979;28;20068;-79
2022/05/15 10:43:38;;;;;;;0.00;0.00;;;29.70;40.80;;;;;;5075686;28;20032;-80
2022/05/15 10:46:37;;;;;;;0.30;0.10;;;29.80;40.80;;;;;;5074112;28;20453;-82
2022/05/15 10:49:21;;;;;;;0.10;0.00;;;30.60;41.90;;;;;;5073326;28;20126;-84
2022/05/15 10:51:53;;;;;;;0.20;0.20;;;30.20;42.00;;;;;;5074743;28;20032;-77
2022/05/15 10:57:29;;;;;;;0.00;0.00;;;29.70;40.50;;;;;;5074764;28;20079;-86
2022/05/15 11:00:40;;;;;;;0.10;0.10;;;29.90;39.90;;;;;;5074300;28;20099;-81
2022/05/15 11:03:28;;;;;;;0.00;0.00;;;29.20;40.50;;;;;;5069926;28;20519;-83
2022/05/15 11:06:18;;;;;;;0.03;0.03;;;28.10;40.30;;;;;;5073589;28;20063;-84
2022/05/15 11:09:03;;;;;;;0.20;0.10;;;28.50;43.10;;;;;;5074114;28;20029;-88
2022/05/15 11:12:04;;;;;;;0.00;0.00;;;28.00;41.70;;;;;;5075585;28;20028;-84
2022/05/15 11:14:58;;;;;;;0.08;0.08;;;28.70;41.50;;;;;;5003871;28;20088;-84
2022/05/15 11:17:39;;;;;;;0.17;0.10;;;28.60;39.80;;;;;;5043371;28;20072;-83
2022/05/15 11:20:17;;;;;;;0.10;0.10;;;27.40;40.90;;;;;;5073451;28;20032;-86
2022/05/15 11:22:49;;;;;;;0.20;0.15;;;28.60;42.40;;;;;;5074528;28;20047;-86
2022/05/15 11:25:33;;;;;;;0.10;0.10;;;27.40;41.10;;;;;;5075977;28;20016;-86
2022/05/15 11:28:18;;;;;;;0.17;0.10;;;28.70;41.30;;;;;;5074657;28;20102;-86
2022/05/15 11:30:45;;;;;;;0.00;0.00;;;29.70;43.30;;;;;;5075357;28;20551;-87
2022/05/15 11:33:17;;;;;;;0.00;0.00;;;29.80;41.40;;;;;;5074088;28;20024;-88
2022/05/15 11:36:12;;;;;;;0.00;0.00;;;28.20;39.30;;;;;;5078459;28;20021;-87
2022/05/15 11:38:47;;;;;;;0.17;0.10;;;28.80;41.00;;;;;;5073653;28;20071;-88
2022/05/15 11:42:08;;;;;;;0.00;0.00;;;28.90;41.70;;;;;;5077853;28;20112;-88
2022/05/15 11:44:38;;;;;;;0.00;0.00;;;28.60;39.40;;;;;;5014519;28;20064;-86
2022/05/15 11:47:18;;;;;;;;;;;28.30;39.20;;;;;;5070317;28;20443;-84
2022/05/15 11:50:05;;;;;;;0.22;0.20;;;28.60;39.30;;;;;;5074401;28;19908;-84
2022/05/15 11:52:37;;;;;;;1.75;0.38;;;28.20;39.50;;;;;;5072593;28;20112;-84
2022/05/15 11:55:37;;;;;;;0.00;0.00;;;28.00;41.30;;;;;;5071945;28;20115;-84
2022/05/15 11:58:21;;;;;;;0.00;0.00;;;28.50;40.50;;;;;;5072350;28;20012;-88
2022/05/15 12:01:13;;;;;;;0.00;0.00;;;29.10;41.00;;;;;;5073237;28;20020;-85
2022/05/15 12:03:39;;;;;;;0.00;0.00;;;29.50;40.00;;;;;;5073485;28;20028;-82
2022/05/15 12:06:10;;;;;;;0.03;0.03;;;28.90;39.00;;;;;;5072131;28;20400;-82
2022/05/15 12:08:38;;;;;;;0.17;0.10;;;29.50;37.00;;;;;;5074517;28;20032;-83
2022/05/15 12:11:34;;;;;;;0.00;0.00;;;29.70;37.30;;;;;;5073676;28;20078;-83
2022/05/15 12:14:26;;;;;;;0.00;0.00;;;29.30;37.40;;;;;;5056195;28;20062;-83
2022/05/15 12:17:00;;;;;;;0.00;0.00;;;29.80;37.60;;;;;;5073509;28;20036;-84
2022/05/15 12:19:40;;;;;;;0.00;0.00;;;29.90;38.80;;;;;;5073066;28;20119;-84
2022/05/15 12:22:10;;;;;;;0.00;0.00;;;30.30;40.00;;;;;;5072813;28;20020;-85
2022/05/15 12:24:39;;;;;;;0.05;0.05;;;30.60;39.30;;;;;;5073736;28;20032;-89
2022/05/15 12:27:18;;;;;;;0.00;0.00;;;28.90;36.50;;;;;;5072973;28;20434;-84
2022/05/15 12:29:50;;;;;;;0.10;0.10;;;28.10;38.00;;;;;;5072744;28;20468;-87
2022/05/15 12:32:30;;;;;;;1.55;0.47;;;29.70;39.20;;;;;;5073081;28;20085;-84
2022/05/15 12:34:57;;;;;;;0.00;0.00;;;28.10;36.10;;;;;;5073229;28;20107;-88
2022/05/15 12:37:35;;;;;;;0.00;0.00;;;28.20;38.20;;;;;;5074067;28;20058;-86
2022/05/15 12:40:02;;;;;;;0.15;0.10;;;28.70;40.40;;;;;;5073340;28;20533;-85
2022/05/15 12:42:41;;;;;;;0.20;0.13;;;29.00;39.70;;;;;;5073471;28;20066;-87
2022/05/15 12:45:18;;;;;;;0.00;0.00;;;29.00;38.50;;;;;;5072427;28;20108;-88
2022/05/15 12:47:43;;;;;;;0.08;0.08;;;28.60;39.70;;;;;;5072711;28;20021;-87
2022/05/15 12:50:20;;;;;;;0.10;0.10;;;29.10;40.60;;;;;;5073269;28;20039;-87
2022/05/15 12:52:55;;;;;;;0.10;0.10;;;29.00;38.00;;;;;;5085243;28;20047;-87
2022/05/15 12:55:29;;;;;;;0.17;0.00;;;29.00;37.60;;;;;;5086259;28;20025;-88
2022/05/15 12:57:57;;;;;;;1.10;0.52;;;28.70;36.80;;;;;;5093188;28;20063;-88
2022/05/15 13:00:32;;;;;;;0.20;0.13;;;28.20;40.00;;;;;;5089527;28;20063;-86
2022/05/15 13:03:03;;;;;;;0.17;0.10;;;28.40;38.40;;;;;;5088685;28;20020;-86
2022/05/15 13:05:48;;;;;;;0.52;0.40;;;29.30;37.80;;;;;;5084114;28;20031;-85
2022/05/15 13:08:14;;;;;;;0.10;0.10;;;28.90;35.90;;;;;;5080071;28;20077;-87
2022/05/15 13:10:51;;;;;;;0.17;0.10;;;29.20;37.40;;;;;;5081263;28;20028;-85
2022/05/15 13:13:38;;;;;;;0.00;0.00;;;29.20;38.90;;;;;;5081255;28;20529;-85
2022/05/15 13:16:07;;;;;;;0.08;0.08;;;28.20;36.10;;;;;;5086240;28;20033;-86
2022/05/15 13:18:36;;;;;;;0.20;0.20;;;28.30;38.20;;;;;;5093689;28;20054;-86
2022/05/15 13:21:05;;;;;;;0.03;0.03;;;28.50;35.10;;;;;;5095124;28;20032;-84
2022/05/15 13:23:39;;;;;;;0.00;0.00;;;28.50;36.20;;;;;;5095879;28;20029;-86
2022/05/15 13:26:07;;;;;;;0.00;0.00;;;29.00;36.60;;;;;;5091028;28;20131;-83
2022/05/15 13:28:33;;;;;;;0.43;0.38;;;29.20;36.80;;;;;;5095343;28;20020;-85
2022/05/15 13:31:00;;;;;;;0.00;0.00;;;27.80;34.10;;;;;;5095108;28;20040;-86
2022/05/15 13:33:29;;;;;;;0.00;0.00;;;28.30;35.70;;;;;;5098757;28;20024;-84